sensor_id;sensor_type;location;lat;lon;timestamp;temperature;humidity
18613;DHT22;9436;52.152;21.032;2023-03-04T00:01:34;2.20;99.90
18613;DHT22;9436;52.152;21.032;2023-03-04T00:04:02;2.20;99.90
18613;DHT22;9436;52.152;21.032;2023-03-04T00:06:29;2.30;99.90
18613;DHT22;9436;52.152;21.032;2023-03-04T00:08:56;2.20;99.90
18613;DHT22;9436;52.152;21.032;2023-03-04T00:11:24;2.20;99.90
18613;DHT22;9436;52.152;21.032;2023-03-04T00:13:51;2.30;99.90
18613;DHT22;9436;52.152;21.032;2023-03-04T00:16:18;2.40;99.90
18613;DHT22;9436;52.152;21.032;2023-03-04T00:18:45;2.40;99.90
18613;DHT22;9436;52.152;21.032;2023-03-04T00:21:13;2.30;99.90
18613;DHT22;9436;52.152;21.032;2023-03-04T00:23:40;2.30;99.90
18613;DHT22;9436;52.152;21.032;2023-03-04T00:26:08;2.30;99.90
18613;DHT22;9436;52.152;21.032;2023-03-04T00:28:35;2.30;99.90
18613;DHT22;9436;52.152;21.032;2023-03-04T00:31:03;2.20;99.90
18613;DHT22;9436;52.152;21.032;2023-03-04T00:33:30;2.20;99.90
18613;DHT22;9436;52.152;21.032;2023-03-04T00:35:57;2.30;99.90
18613;DHT22;9436;52.152;21.032;2023-03-04T00:38:26;2.30;99.90
18613;DHT22;9436;52.152;21.032;2023-03-04T00:40:53;2.30;99.90
18613;DHT22;9436;52.152;21.032;2023-03-04T00:43:21;2.20;99.90
18613;DHT22;9436;52.152;21.032;2023-03-04T00:45:48;2.20;99.90
18613;DHT22;9436;52.152;21.032;2023-03-04T00:48:15;2.30;99.90
18613;DHT22;9436;52.152;21.032;2023-03-04T00:50:43;2.20;99.90
18613;DHT22;9436;52.152;21.032;2023-03-04T00:53:10;2.20;99.90
18613;DHT22;9436;52.152;21.032;2023-03-04T00:55:39;2.20;99.90
18613;DHT22;9436;52.152;21.032;2023-03-04T00:58:06;2.20;99.90
18613;DHT22;9436;52.152;21.032;2023-03-04T01:00:33;2.20;99.90
18613;DHT22;9436;52.152;21.032;2023-03-04T01:03:00;2.20;99.90
18613;DHT22;9436;52.152;21.032;2023-03-04T01:05:28;2.10;99.90
18613;DHT22;9436;52.152;21.032;2023-03-04T01:07:56;2.10;99.90
18613;DHT22;9436;52.152;21.032;2023-03-04T01:10:23;2.20;99.90
18613;DHT22;9436;52.152;21.032;2023-03-04T01:12:52;2.10;99.90
18613;DHT22;9436;52.152;21.032;2023-03-04T01:15:19;2.20;99.90
18613;DHT22;9436;52.152;21.032;2023-03-04T01:17:46;2.20;99.90
18613;DHT22;9436;52.152;21.032;2023-03-04T01:20:14;2.20;99.90
18613;DHT22;9436;52.152;21.032;2023-03-04T01:22:41;2.20;99.90
18613;DHT22;9436;52.152;21.032;2023-03-04T01:25:09;2.20;99.90
18613;DHT22;9436;52.152;21.032;2023-03-04T01:27:36;2.30;99.90
18613;DHT22;9436;52.152;21.032;2023-03-04T01:30:05;2.30;99.90
18613;DHT22;9436;52.152;21.032;2023-03-04T01:32:33;2.40;99.90
18613;DHT22;9436;52.152;21.032;2023-03-04T01:35:00;2.40;99.90
18613;DHT22;9436;52.152;21.032;2023-03-04T01:37:27;2.30;99.90
18613;DHT22;9436;52.152;21.032;2023-03-04T01:39:54;2.30;99.90
18613;DHT22;9436;52.152;21.032;2023-03-04T01:42:32;2.30;99.90
18613;DHT22;9436;52.152;21.032;2023-03-04T01:45:00;2.20;99.90
18613;DHT22;9436;52.152;21.032;2023-03-04T01:47:30;2.20;99.90
18613;DHT22;9436;52.152;21.032;2023-03-04T01:49:59;2.20;99.90
18613;DHT22;9436;52.152;21.032;2023-03-04T01:52:27;2.10;99.90
18613;DHT22;9436;52.152;21.032;2023-03-04T01:54:54;2.10;99.90
18613;DHT22;9436;52.152;21.032;2023-03-04T01:57:23;2.00;99.90
18613;DHT22;9436;52.152;21.032;2023-03-04T02:00:22;2.00;99.90
18613;DHT22;9436;52.152;21.032;2023-03-04T02:02:53;1.90;99.90
18613;DHT22;9436;52.152;21.032;2023-03-04T02:05:21;1.90;99.90
18613;DHT22;9436;52.152;21.032;2023-03-04T02:07:50;1.80;99.90
18613;DHT22;9436;52.152;21.032;2023-03-04T02:10:18;1.90;99.90
18613;DHT22;9436;52.152;21.032;2023-03-04T02:12:46;2.00;99.90
18613;DHT22;9436;52.152;21.032;2023-03-04T02:15:13;2.00;99.90
18613;DHT22;9436;52.152;21.032;2023-03-04T02:17:40;2.10;99.90
18613;DHT22;9436;52.152;21.032;2023-03-04T02:20:20;2.10;99.90
18613;DHT22;9436;52.152;21.032;2023-03-04T02:22:55;2.20;99.90
18613;DHT22;9436;52.152;21.032;2023-03-04T02:25:28;2.20;99.90
18613;DHT22;9436;52.152;21.032;2023-03-04T02:27:58;2.30;99.90
18613;DHT22;9436;52.152;21.032;2023-03-04T02:30:25;2.30;99.90
18613;DHT22;9436;52.152;21.032;2023-03-04T02:32:52;2.30;99.90
18613;DHT22;9436;52.152;21.032;2023-03-04T02:35:20;2.30;99.90
18613;DHT22;9436;52.152;21.032;2023-03-04T02:37:47;2.30;99.90
18613;DHT22;9436;52.152;21.032;2023-03-04T02:40:17;2.20;99.90
18613;DHT22;9436;52.152;21.032;2023-03-04T02:42:46;2.10;99.90
18613;DHT22;9436;52.152;21.032;2023-03-04T02:45:37;2.20;99.90
18613;DHT22;9436;52.152;21.032;2023-03-04T02:48:07;2.30;99.90
18613;DHT22;9436;52.152;21.032;2023-03-04T02:50:37;2.30;99.90
18613;DHT22;9436;52.152;21.032;2023-03-04T02:53:05;2.20;99.90
18613;DHT22;9436;52.152;21.032;2023-03-04T02:55:32;2.20;99.90
18613;DHT22;9436;52.152;21.032;2023-03-04T02:57:59;2.20;99.90
18613;DHT22;9436;52.152;21.032;2023-03-04T03:00:27;2.30;99.90
18613;DHT22;9436;52.152;21.032;2023-03-04T03:02:56;2.40;99.90
18613;DHT22;9436;52.152;21.032;2023-03-04T03:05:24;2.40;99.90
18613;DHT22;9436;52.152;21.032;2023-03-04T03:07:51;2.40;99.90
18613;DHT22;9436;52.152;21.032;2023-03-04T03:10:19;2.40;99.90
18613;DHT22;9436;52.152;21.032;2023-03-04T03:12:46;2.50;99.90
18613;DHT22;9436;52.152;21.032;2023-03-04T03:15:13;2.50;99.90
18613;DHT22;9436;52.152;21.032;2023-03-04T03:17:40;2.40;99.90
18613;DHT22;9436;52.152;21.032;2023-03-04T03:20:10;2.40;99.90
18613;DHT22;9436;52.152;21.032;2023-03-04T03:22:38;2.40;99.90
18613;DHT22;9436;52.152;21.032;2023-03-04T03:25:06;2.50;99.90
18613;DHT22;9436;52.152;21.032;2023-03-04T03:27:33;2.50;99.90
18613;DHT22;9436;52.152;21.032;2023-03-04T03:30:00;2.50;99.90
18613;DHT22;9436;52.152;21.032;2023-03-04T03:32:28;2.50;99.90
18613;DHT22;9436;52.152;21.032;2023-03-04T03:34:55;2.50;99.90
18613;DHT22;9436;52.152;21.032;2023-03-04T03:37:23;2.40;99.90
18613;DHT22;9436;52.152;21.032;2023-03-04T03:39:50;2.50;99.90
18613;DHT22;9436;52.152;21.032;2023-03-04T03:42:18;2.50;99.90
18613;DHT22;9436;52.152;21.032;2023-03-04T03:44:45;2.60;99.90
18613;DHT22;9436;52.152;21.032;2023-03-04T03:47:12;2.60;99.90
18613;DHT22;9436;52.152;21.032;2023-03-04T03:49:39;2.60;99.90
18613;DHT22;9436;52.152;21.032;2023-03-04T03:52:06;2.60;99.90
18613;DHT22;9436;52.152;21.032;2023-03-04T03:54:35;2.70;99.90
18613;DHT22;9436;52.152;21.032;2023-03-04T03:57:02;2.80;99.90
18613;DHT22;9436;52.152;21.032;2023-03-04T03:59:30;2.80;99.90
18613;DHT22;9436;52.152;21.032;2023-03-04T04:01:57;2.70;99.90
18613;DHT22;9436;52.152;21.032;2023-03-04T04:04:24;2.80;99.90
18613;DHT22;9436;52.152;21.032;2023-03-04T04:06:51;2.80;99.90
18613;DHT22;9436;52.152;21.032;2023-03-04T04:09:18;2.80;99.90
18613;DHT22;9436;52.152;21.032;2023-03-04T04:11:47;2.80;99.90
18613;DHT22;9436;52.152;21.032;2023-03-04T04:14:14;2.70;99.90
18613;DHT22;9436;52.152;21.032;2023-03-04T04:16:41;2.80;99.90
18613;DHT22;9436;52.152;21.032;2023-03-04T04:19:12;2.80;99.90
18613;DHT22;9436;52.152;21.032;2023-03-04T04:21:41;2.90;99.90
18613;DHT22;9436;52.152;21.032;2023-03-04T04:24:08;2.80;99.90
18613;DHT22;9436;52.152;21.032;2023-03-04T04:26:35;2.80;99.90
18613;DHT22;9436;52.152;21.032;2023-03-04T04:29:04;2.90;99.90
18613;DHT22;9436;52.152;21.032;2023-03-04T04:31:31;2.80;99.90
18613;DHT22;9436;52.152;21.032;2023-03-04T04:33:58;2.90;99.90
18613;DHT22;9436;52.152;21.032;2023-03-04T04:36:25;3.00;99.90
18613;DHT22;9436;52.152;21.032;2023-03-04T04:38:52;2.90;99.90
18613;DHT22;9436;52.152;21.032;2023-03-04T04:41:22;3.00;99.90
18613;DHT22;9436;52.152;21.032;2023-03-04T04:43:49;3.00;99.90
18613;DHT22;9436;52.152;21.032;2023-03-04T04:46:17;3.00;99.90
18613;DHT22;9436;52.152;21.032;2023-03-04T04:48:45;3.10;99.90
18613;DHT22;9436;52.152;21.032;2023-03-04T04:51:12;3.00;99.90
18613;DHT22;9436;52.152;21.032;2023-03-04T04:53:39;2.90;99.90
18613;DHT22;9436;52.152;21.032;2023-03-04T04:56:11;2.90;99.90
18613;DHT22;9436;52.152;21.032;2023-03-04T04:58:38;3.00;99.90
18613;DHT22;9436;52.152;21.032;2023-03-04T05:01:06;3.00;99.90
18613;DHT22;9436;52.152;21.032;2023-03-04T05:03:35;3.00;99.90
18613;DHT22;9436;52.152;21.032;2023-03-04T05:06:03;3.00;99.90
18613;DHT22;9436;52.152;21.032;2023-03-04T05:08:31;3.00;99.90
18613;DHT22;9436;52.152;21.032;2023-03-04T05:10:58;3.10;99.90
18613;DHT22;9436;52.152;21.032;2023-03-04T05:13:25;3.20;99.90
18613;DHT22;9436;52.152;21.032;2023-03-04T05:15:53;3.10;99.90
18613;DHT22;9436;52.152;21.032;2023-03-04T05:18:21;3.10;99.90
18613;DHT22;9436;52.152;21.032;2023-03-04T05:20:51;3.10;99.90
18613;DHT22;9436;52.152;21.032;2023-03-04T05:23:18;3.20;99.90
18613;DHT22;9436;52.152;21.032;2023-03-04T05:25:46;3.30;99.90
18613;DHT22;9436;52.152;21.032;2023-03-04T05:28:14;3.30;99.90
18613;DHT22;9436;52.152;21.032;2023-03-04T05:30:42;3.30;99.90
18613;DHT22;9436;52.152;21.032;2023-03-04T05:33:12;3.20;99.90
18613;DHT22;9436;52.152;21.032;2023-03-04T05:35:41;3.30;99.90
18613;DHT22;9436;52.152;21.032;2023-03-04T05:38:11;3.30;99.90
18613;DHT22;9436;52.152;21.032;2023-03-04T05:40:39;3.20;99.90
18613;DHT22;9436;52.152;21.032;2023-03-04T05:43:06;3.10;99.90
18613;DHT22;9436;52.152;21.032;2023-03-04T05:45:33;3.20;99.90
18613;DHT22;9436;52.152;21.032;2023-03-04T05:48:01;3.20;99.90
18613;DHT22;9436;52.152;21.032;2023-03-04T05:50:28;3.20;99.90
18613;DHT22;9436;52.152;21.032;2023-03-04T05:52:56;3.20;99.90
18613;DHT22;9436;52.152;21.032;2023-03-04T05:55:25;3.30;99.90
18613;DHT22;9436;52.152;21.032;2023-03-04T05:57:53;3.20;99.90
18613;DHT22;9436;52.152;21.032;2023-03-04T06:00:20;3.20;99.90
18613;DHT22;9436;52.152;21.032;2023-03-04T06:02:47;3.10;99.90
18613;DHT22;9436;52.152;21.032;2023-03-04T06:05:15;3.10;99.90
18613;DHT22;9436;52.152;21.032;2023-03-04T06:07:43;3.40;99.90
18613;DHT22;9436;52.152;21.032;2023-03-04T06:10:13;3.50;99.90
18613;DHT22;9436;52.152;21.032;2023-03-04T06:12:42;3.40;99.90
18613;DHT22;9436;52.152;21.032;2023-03-04T06:15:10;3.40;99.90
18613;DHT22;9436;52.152;21.032;2023-03-04T06:17:38;3.40;99.90
18613;DHT22;9436;52.152;21.032;2023-03-04T06:20:05;3.30;99.90
18613;DHT22;9436;52.152;21.032;2023-03-04T06:22:33;3.20;99.90
18613;DHT22;9436;52.152;21.032;2023-03-04T06:25:01;3.20;99.90
18613;DHT22;9436;52.152;21.032;2023-03-04T06:27:28;3.20;99.90
18613;DHT22;9436;52.152;21.032;2023-03-04T06:29:56;3.20;99.90
18613;DHT22;9436;52.152;21.032;2023-03-04T06:32:23;3.30;99.90
18613;DHT22;9436;52.152;21.032;2023-03-04T06:34:50;3.30;99.90
18613;DHT22;9436;52.152;21.032;2023-03-04T06:37:18;3.30;99.90
18613;DHT22;9436;52.152;21.032;2023-03-04T06:39:45;3.40;99.90
18613;DHT22;9436;52.152;21.032;2023-03-04T06:42:12;3.40;99.90
18613;DHT22;9436;52.152;21.032;2023-03-04T06:44:39;3.30;99.90
18613;DHT22;9436;52.152;21.032;2023-03-04T06:47:08;3.30;99.90
18613;DHT22;9436;52.152;21.032;2023-03-04T06:49:35;3.30;99.90
18613;DHT22;9436;52.152;21.032;2023-03-04T06:52:02;3.20;99.90
18613;DHT22;9436;52.152;21.032;2023-03-04T06:54:29;3.20;99.90
18613;DHT22;9436;52.152;21.032;2023-03-04T06:56:56;3.30;99.90
18613;DHT22;9436;52.152;21.032;2023-03-04T06:59:23;3.20;99.90
18613;DHT22;9436;52.152;21.032;2023-03-04T07:01:50;3.30;99.90
18613;DHT22;9436;52.152;21.032;2023-03-04T07:04:19;3.30;99.90
18613;DHT22;9436;52.152;21.032;2023-03-04T07:06:48;3.30;99.90
18613;DHT22;9436;52.152;21.032;2023-03-04T07:09:15;3.40;99.90
18613;DHT22;9436;52.152;21.032;2023-03-04T07:11:42;3.50;99.90
18613;DHT22;9436;52.152;21.032;2023-03-04T07:14:10;3.40;99.90
18613;DHT22;9436;52.152;21.032;2023-03-04T07:16:37;3.40;99.90
18613;DHT22;9436;52.152;21.032;2023-03-04T07:19:04;3.40;99.90
18613;DHT22;9436;52.152;21.032;2023-03-04T07:21:32;3.50;99.90
18613;DHT22;9436;52.152;21.032;2023-03-04T07:23:59;3.40;99.90
18613;DHT22;9436;52.152;21.032;2023-03-04T07:26:27;3.40;99.90
18613;DHT22;9436;52.152;21.032;2023-03-04T07:28:54;3.40;99.90
18613;DHT22;9436;52.152;21.032;2023-03-04T07:31:24;3.40;99.90
18613;DHT22;9436;52.152;21.032;2023-03-04T07:33:55;3.30;99.90
18613;DHT22;9436;52.152;21.032;2023-03-04T07:36:22;3.40;99.90
18613;DHT22;9436;52.152;21.032;2023-03-04T07:38:51;3.40;99.90
18613;DHT22;9436;52.152;21.032;2023-03-04T07:41:20;3.40;99.90
18613;DHT22;9436;52.152;21.032;2023-03-04T07:43:48;3.40;99.90
18613;DHT22;9436;52.152;21.032;2023-03-04T07:46:15;3.40;99.90
18613;DHT22;9436;52.152;21.032;2023-03-04T07:48:42;3.40;99.90
18613;DHT22;9436;52.152;21.032;2023-03-04T07:51:11;3.50;99.90
18613;DHT22;9436;52.152;21.032;2023-03-04T07:53:41;3.50;99.90
18613;DHT22;9436;52.152;21.032;2023-03-04T07:56:13;3.50;99.90
18613;DHT22;9436;52.152;21.032;2023-03-04T07:58:41;3.40;99.90
18613;DHT22;9436;52.152;21.032;2023-03-04T08:01:09;3.50;99.90
18613;DHT22;9436;52.152;21.032;2023-03-04T08:03:36;3.60;99.90
18613;DHT22;9436;52.152;21.032;2023-03-04T08:06:05;3.60;99.90
18613;DHT22;9436;52.152;21.032;2023-03-04T08:08:32;3.60;99.90
18613;DHT22;9436;52.152;21.032;2023-03-04T08:10:59;3.60;99.90
18613;DHT22;9436;52.152;21.032;2023-03-04T08:13:28;3.60;99.90
18613;DHT22;9436;52.152;21.032;2023-03-04T08:15:55;3.60;99.90
18613;DHT22;9436;52.152;21.032;2023-03-04T08:18:22;3.50;99.90
18613;DHT22;9436;52.152;21.032;2023-03-04T08:20:49;3.60;99.90
18613;DHT22;9436;52.152;21.032;2023-03-04T08:23:17;3.60;99.90
18613;DHT22;9436;52.152;21.032;2023-03-04T08:25:44;3.60;99.90
18613;DHT22;9436;52.152;21.032;2023-03-04T08:28:12;3.70;99.90
18613;DHT22;9436;52.152;21.032;2023-03-04T08:30:41;3.60;99.90
18613;DHT22;9436;52.152;21.032;2023-03-04T08:33:09;3.60;99.90
18613;DHT22;9436;52.152;21.032;2023-03-04T08:35:37;3.60;99.90
18613;DHT22;9436;52.152;21.032;2023-03-04T08:38:04;3.50;99.90
18613;DHT22;9436;52.152;21.032;2023-03-04T08:40:32;3.60;99.90
18613;DHT22;9436;52.152;21.032;2023-03-04T08:42:59;3.60;99.90
18613;DHT22;9436;52.152;21.032;2023-03-04T08:45:26;3.60;99.90
18613;DHT22;9436;52.152;21.032;2023-03-04T08:47:55;3.70;99.90
18613;DHT22;9436;52.152;21.032;2023-03-04T08:50:22;3.70;99.90
18613;DHT22;9436;52.152;21.032;2023-03-04T08:52:49;3.70;99.90
18613;DHT22;9436;52.152;21.032;2023-03-04T08:55:16;3.80;99.90
18613;DHT22;9436;52.152;21.032;2023-03-04T08:57:43;3.80;99.90
18613;DHT22;9436;52.152;21.032;2023-03-04T09:00:11;3.80;99.90
18613;DHT22;9436;52.152;21.032;2023-03-04T09:02:39;3.90;99.90
18613;DHT22;9436;52.152;21.032;2023-03-04T09:05:08;3.90;99.90
18613;DHT22;9436;52.152;21.032;2023-03-04T09:07:35;3.80;99.90
18613;DHT22;9436;52.152;21.032;2023-03-04T09:10:03;3.80;99.90
18613;DHT22;9436;52.152;21.032;2023-03-04T09:12:30;3.80;99.90
18613;DHT22;9436;52.152;21.032;2023-03-04T09:14:57;3.70;99.90
18613;DHT22;9436;52.152;21.032;2023-03-04T09:17:24;3.80;99.90
18613;DHT22;9436;52.152;21.032;2023-03-04T09:19:51;3.80;99.90
18613;DHT22;9436;52.152;21.032;2023-03-04T09:22:19;3.90;99.90
18613;DHT22;9436;52.152;21.032;2023-03-04T09:24:46;3.80;99.90
18613;DHT22;9436;52.152;21.032;2023-03-04T09:27:14;3.90;99.90
18613;DHT22;9436;52.152;21.032;2023-03-04T09:29:41;4.00;99.90
18613;DHT22;9436;52.152;21.032;2023-03-04T09:32:09;4.00;99.90
18613;DHT22;9436;52.152;21.032;2023-03-04T09:34:36;4.00;99.90
18613;DHT22;9436;52.152;21.032;2023-03-04T09:37:03;4.10;99.90
18613;DHT22;9436;52.152;21.032;2023-03-04T09:39:31;4.10;99.90
18613;DHT22;9436;52.152;21.032;2023-03-04T09:41:59;4.20;99.90
18613;DHT22;9436;52.152;21.032;2023-03-04T09:44:28;4.10;99.90
18613;DHT22;9436;52.152;21.032;2023-03-04T09:46:59;4.10;99.90
18613;DHT22;9436;52.152;21.032;2023-03-04T09:49:27;4.10;99.90
18613;DHT22;9436;52.152;21.032;2023-03-04T09:52:01;4.00;99.90
18613;DHT22;9436;52.152;21.032;2023-03-04T09:54:53;4.00;99.90
18613;DHT22;9436;52.152;21.032;2023-03-04T09:57:27;4.10;99.90
18613;DHT22;9436;52.152;21.032;2023-03-04T10:00:08;4.10;99.90
18613;DHT22;9436;52.152;21.032;2023-03-04T10:02:44;4.10;99.90
18613;DHT22;9436;52.152;21.032;2023-03-04T10:05:16;4.10;99.90
18613;DHT22;9436;52.152;21.032;2023-03-04T10:07:47;4.10;99.90
18613;DHT22;9436;52.152;21.032;2023-03-04T10:10:21;4.10;99.90
18613;DHT22;9436;52.152;21.032;2023-03-04T10:12:52;4.10;99.90
18613;DHT22;9436;52.152;21.032;2023-03-04T10:15:26;4.10;99.90
18613;DHT22;9436;52.152;21.032;2023-03-04T10:18:02;4.20;99.90
18613;DHT22;9436;52.152;21.032;2023-03-04T10:20:46;4.20;99.90
18613;DHT22;9436;52.152;21.032;2023-03-04T10:23:20;4.20;99.90
18613;DHT22;9436;52.152;21.032;2023-03-04T10:25:49;4.20;99.90
18613;DHT22;9436;52.152;21.032;2023-03-04T10:28:22;4.10;99.90
18613;DHT22;9436;52.152;21.032;2023-03-04T10:30:55;4.20;99.90
18613;DHT22;9436;52.152;21.032;2023-03-04T10:33:26;4.20;99.90
18613;DHT22;9436;52.152;21.032;2023-03-04T10:36:00;4.30;99.90
18613;DHT22;9436;52.152;21.032;2023-03-04T10:38:31;4.30;99.90
18613;DHT22;9436;52.152;21.032;2023-03-04T10:41:00;4.40;99.90
18613;DHT22;9436;52.152;21.032;2023-03-04T10:43:28;4.50;99.90
18613;DHT22;9436;52.152;21.032;2023-03-04T10:45:57;4.40;99.90
18613;DHT22;9436;52.152;21.032;2023-03-04T10:48:27;4.40;99.90
18613;DHT22;9436;52.152;21.032;2023-03-04T10:51:10;4.40;99.90
18613;DHT22;9436;52.152;21.032;2023-03-04T10:53:40;4.40;99.90
18613;DHT22;9436;52.152;21.032;2023-03-04T10:56:34;4.40;99.90
18613;DHT22;9436;52.152;21.032;2023-03-04T10:59:34;4.50;99.90
18613;DHT22;9436;52.152;21.032;2023-03-04T11:02:17;4.50;99.90
18613;DHT22;9436;52.152;21.032;2023-03-04T11:04:50;4.60;99.90
18613;DHT22;9436;52.152;21.032;2023-03-04T11:07:18;4.60;99.90
18613;DHT22;9436;52.152;21.032;2023-03-04T11:09:45;4.50;99.90
18613;DHT22;9436;52.152;21.032;2023-03-04T11:12:16;4.50;99.90
18613;DHT22;9436;52.152;21.032;2023-03-04T11:14:47;4.50;99.90
18613;DHT22;9436;52.152;21.032;2023-03-04T11:17:21;4.50;99.90
18613;DHT22;9436;52.152;21.032;2023-03-04T11:19:54;4.40;99.90
18613;DHT22;9436;52.152;21.032;2023-03-04T11:22:23;4.50;99.90
18613;DHT22;9436;52.152;21.032;2023-03-04T11:25:04;4.50;99.90
18613;DHT22;9436;52.152;21.032;2023-03-04T11:27:44;4.60;99.90
18613;DHT22;9436;52.152;21.032;2023-03-04T11:30:23;4.70;99.90
18613;DHT22;9436;52.152;21.032;2023-03-04T11:32:53;4.60;99.90
18613;DHT22;9436;52.152;21.032;2023-03-04T11:35:24;4.60;99.90
18613;DHT22;9436;52.152;21.032;2023-03-04T11:37:59;4.70;99.90
18613;DHT22;9436;52.152;21.032;2023-03-04T11:40:32;4.70;99.90
18613;DHT22;9436;52.152;21.032;2023-03-04T11:43:08;4.60;99.90
18613;DHT22;9436;52.152;21.032;2023-03-04T11:48:44;4.60;99.90
18613;DHT22;9436;52.152;21.032;2023-03-04T11:51:20;4.60;99.90
18613;DHT22;9436;52.152;21.032;2023-03-04T11:54:07;4.70;99.90
18613;DHT22;9436;52.152;21.032;2023-03-04T11:56:40;4.70;99.90
18613;DHT22;9436;52.152;21.032;2023-03-04T12:02:18;4.70;99.90
18613;DHT22;9436;52.152;21.032;2023-03-04T12:08:07;4.80;99.90
18613;DHT22;9436;52.152;21.032;2023-03-04T12:10:42;4.70;99.90
18613;DHT22;9436;52.152;21.032;2023-03-04T12:13:32;4.70;99.90
18613;DHT22;9436;52.152;21.032;2023-03-04T12:16:09;4.70;99.90
18613;DHT22;9436;52.152;21.032;2023-03-04T12:18:48;4.60;99.90
18613;DHT22;9436;52.152;21.032;2023-03-04T12:21:31;4.60;99.90
18613;DHT22;9436;52.152;21.032;2023-03-04T12:24:37;4.60;99.90
18613;DHT22;9436;52.152;21.032;2023-03-04T12:27:14;4.60;99.90
18613;DHT22;9436;52.152;21.032;2023-03-04T12:29:48;4.50;99.90
18613;DHT22;9436;52.152;21.032;2023-03-04T12:32:21;4.50;99.90
18613;DHT22;9436;52.152;21.032;2023-03-04T12:35:08;4.60;99.90
18613;DHT22;9436;52.152;21.032;2023-03-04T12:37:56;4.50;99.90
18613;DHT22;9436;52.152;21.032;2023-03-04T12:40:35;4.40;99.90
18613;DHT22;9436;52.152;21.032;2023-03-04T12:43:29;4.20;99.90
18613;DHT22;9436;52.152;21.032;2023-03-04T12:46:06;4.30;99.90
18613;DHT22;9436;52.152;21.032;2023-03-04T12:48:40;4.20;99.90
18613;DHT22;9436;52.152;21.032;2023-03-04T12:51:16;4.20;99.90
18613;DHT22;9436;52.152;21.032;2023-03-04T12:53:55;4.20;99.90
18613;DHT22;9436;52.152;21.032;2023-03-04T12:56:35;4.30;99.90
18613;DHT22;9436;52.152;21.032;2023-03-04T12:59:04;4.30;99.90
18613;DHT22;9436;52.152;21.032;2023-03-04T13:01:38;4.40;99.90
18613;DHT22;9436;52.152;21.032;2023-03-04T13:04:10;4.40;99.90
18613;DHT22;9436;52.152;21.032;2023-03-04T13:06:46;4.60;99.90
18613;DHT22;9436;52.152;21.032;2023-03-04T13:09:21;4.70;99.90
18613;DHT22;9436;52.152;21.032;2023-03-04T13:11:53;4.70;99.90
18613;DHT22;9436;52.152;21.032;2023-03-04T13:14:35;4.80;99.90
18613;DHT22;9436;52.152;21.032;2023-03-04T13:17:36;4.70;99.90
18613;DHT22;9436;52.152;21.032;2023-03-04T13:20:22;4.70;99.90
18613;DHT22;9436;52.152;21.032;2023-03-04T13:22:54;4.60;99.90
18613;DHT22;9436;52.152;21.032;2023-03-04T13:25:39;4.60;99.90
18613;DHT22;9436;52.152;21.032;2023-03-04T13:28:25;4.70;99.90
18613;DHT22;9436;52.152;21.032;2023-03-04T13:31:11;4.70;99.90
18613;DHT22;9436;52.152;21.032;2023-03-04T13:36:52;4.90;99.90
18613;DHT22;9436;52.152;21.032;2023-03-04T13:39:30;4.90;99.90
18613;DHT22;9436;52.152;21.032;2023-03-04T13:41:58;4.90;99.90
18613;DHT22;9436;52.152;21.032;2023-03-04T13:44:56;5.00;99.90
18613;DHT22;9436;52.152;21.032;2023-03-04T13:47:31;5.10;99.90
18613;DHT22;9436;52.152;21.032;2023-03-04T13:50:28;5.10;99.90
18613;DHT22;9436;52.152;21.032;2023-03-04T13:56:23;5.10;99.90
18613;DHT22;9436;52.152;21.032;2023-03-04T13:59:00;5.10;99.90
18613;DHT22;9436;52.152;21.032;2023-03-04T14:01:29;5.10;99.90
18613;DHT22;9436;52.152;21.032;2023-03-04T14:03:57;4.90;99.90
18613;DHT22;9436;52.152;21.032;2023-03-04T14:06:25;4.70;99.90
18613;DHT22;9436;52.152;21.032;2023-03-04T14:08:54;4.00;99.90
18613;DHT22;9436;52.152;21.032;2023-03-04T14:11:27;3.90;99.90
18613;DHT22;9436;52.152;21.032;2023-03-04T14:13:57;4.00;99.90
18613;DHT22;9436;52.152;21.032;2023-03-04T14:16:26;4.00;99.90
18613;DHT22;9436;52.152;21.032;2023-03-04T14:18:58;4.10;99.90
18613;DHT22;9436;52.152;21.032;2023-03-04T14:21:27;4.10;99.90
18613;DHT22;9436;52.152;21.032;2023-03-04T14:24:06;4.10;99.90
18613;DHT22;9436;52.152;21.032;2023-03-04T14:26:34;4.10;99.90
18613;DHT22;9436;52.152;21.032;2023-03-04T14:29:02;4.10;99.90
18613;DHT22;9436;52.152;21.032;2023-03-04T14:31:30;4.10;99.90
18613;DHT22;9436;52.152;21.032;2023-03-04T14:34:00;4.10;99.90
18613;DHT22;9436;52.152;21.032;2023-03-04T14:36:30;4.10;99.90
18613;DHT22;9436;52.152;21.032;2023-03-04T14:38:59;4.20;99.90
18613;DHT22;9436;52.152;21.032;2023-03-04T14:41:31;4.20;99.90
18613;DHT22;9436;52.152;21.032;2023-03-04T14:44:04;4.30;99.90
18613;DHT22;9436;52.152;21.032;2023-03-04T14:46:37;4.40;99.90
18613;DHT22;9436;52.152;21.032;2023-03-04T14:49:10;4.30;99.90
18613;DHT22;9436;52.152;21.032;2023-03-04T14:51:41;4.20;99.90
18613;DHT22;9436;52.152;21.032;2023-03-04T14:54:32;4.40;99.90
18613;DHT22;9436;52.152;21.032;2023-03-04T14:57:00;4.40;99.90
18613;DHT22;9436;52.152;21.032;2023-03-04T14:59:30;4.50;99.90
18613;DHT22;9436;52.152;21.032;2023-03-04T15:02:17;4.40;99.90
18613;DHT22;9436;52.152;21.032;2023-03-04T15:04:45;4.30;99.90
18613;DHT22;9436;52.152;21.032;2023-03-04T15:07:15;4.30;99.90
18613;DHT22;9436;52.152;21.032;2023-03-04T15:09:49;4.40;99.90
18613;DHT22;9436;52.152;21.032;2023-03-04T15:12:24;4.40;99.90
18613;DHT22;9436;52.152;21.032;2023-03-04T15:14:54;4.50;99.90
18613;DHT22;9436;52.152;21.032;2023-03-04T15:17:29;4.50;99.90
18613;DHT22;9436;52.152;21.032;2023-03-04T15:20:18;4.60;99.90
18613;DHT22;9436;52.152;21.032;2023-03-04T15:23:00;4.70;99.90
18613;DHT22;9436;52.152;21.032;2023-03-04T15:25:28;4.80;99.90
18613;DHT22;9436;52.152;21.032;2023-03-04T15:27:56;4.80;99.90
18613;DHT22;9436;52.152;21.032;2023-03-04T15:30:27;4.80;99.90
18613;DHT22;9436;52.152;21.032;2023-03-04T15:32:55;4.70;99.90
18613;DHT22;9436;52.152;21.032;2023-03-04T15:35:24;4.70;99.90
18613;DHT22;9436;52.152;21.032;2023-03-04T15:37:55;4.60;99.90
18613;DHT22;9436;52.152;21.032;2023-03-04T15:40:27;4.60;99.90
18613;DHT22;9436;52.152;21.032;2023-03-04T15:42:56;4.50;99.90
18613;DHT22;9436;52.152;21.032;2023-03-04T15:45:27;4.50;99.90
18613;DHT22;9436;52.152;21.032;2023-03-04T15:47:55;4.40;99.90
18613;DHT22;9436;52.152;21.032;2023-03-04T15:50:26;4.40;99.90
18613;DHT22;9436;52.152;21.032;2023-03-04T15:52:57;4.30;99.90
18613;DHT22;9436;52.152;21.032;2023-03-04T15:55:27;4.10;99.90
18613;DHT22;9436;52.152;21.032;2023-03-04T15:57:56;4.00;99.90
18613;DHT22;9436;52.152;21.032;2023-03-04T16:00:26;3.70;99.90
18613;DHT22;9436;52.152;21.032;2023-03-04T16:02:53;3.60;99.90
18613;DHT22;9436;52.152;21.032;2023-03-04T16:05:20;3.40;99.90
18613;DHT22;9436;52.152;21.032;2023-03-04T16:07:49;3.40;99.90
18613;DHT22;9436;52.152;21.032;2023-03-04T16:10:20;3.20;99.90
18613;DHT22;9436;52.152;21.032;2023-03-04T16:12:48;3.10;99.90
18613;DHT22;9436;52.152;21.032;2023-03-04T16:15:17;3.20;99.90
18613;DHT22;9436;52.152;21.032;2023-03-04T16:17:46;3.20;99.90
18613;DHT22;9436;52.152;21.032;2023-03-04T16:20:15;3.10;99.90
18613;DHT22;9436;52.152;21.032;2023-03-04T16:22:43;3.00;99.90